createdAt,value
2023-01-06T00:01:47.767Z,101375.13
2023-01-06T00:06:52.329Z,101391.28
2023-01-06T00:11:56.997Z,101342.47
2023-01-06T00:17:00.512Z,101352.78
2023-01-06T00:22:06.929Z,101362.22
2023-01-06T00:27:11.731Z,101381.84
2023-01-06T00:32:16.329Z,101370.56
2023-01-06T00:37:20.890Z,101382.44
2023-01-06T00:42:26.045Z,101374.56
2023-01-06T00:47:30.089Z,101366.53
2023-01-06T00:52:36.609Z,101365.47
2023-01-06T00:57:41.909Z,101377.22
2023-01-06T01:02:49.393Z,101369.19
2023-01-06T01:07:54.342Z,101383.44
2023-01-06T01:12:58.952Z,101410.47
2023-01-06T01:18:04.489Z,101364.63
2023-01-06T01:23:08.597Z,101377.88
2023-01-06T01:28:13.214Z,101357.75
2023-01-06T01:33:21.029Z,101359.03
2023-01-06T01:38:24.595Z,101342.19
2023-01-06T01:44:04.364Z,101357.94
2023-01-06T01:49:21.494Z,101341.03
2023-01-06T01:54:31.164Z,101349.00
2023-01-06T01:59:40.133Z,101384.63
2023-01-06T02:04:49.537Z,101337.59
2023-01-06T02:10:03.552Z,101358.50
2023-01-06T02:15:22.237Z,101351.91
2023-01-06T02:20:51.246Z,101341.03
2023-01-06T02:26:20.473Z,101324.94
2023-01-06T02:32:02.228Z,101324.28
2023-01-06T02:37:05.929Z,101335.66
2023-01-06T02:42:13.669Z,101321.84
2023-01-06T02:47:17.458Z,101319.56
2023-01-06T02:52:25.194Z,101300.91
2023-01-06T02:57:43.127Z,101286.56
2023-01-06T03:02:56.388Z,101262.59
2023-01-06T03:08:02.535Z,101259.03
2023-01-06T03:13:23.128Z,101234.19
2023-01-06T03:18:33.936Z,101242.25
2023-01-06T03:23:42.585Z,101233.00
2023-01-06T03:28:49.541Z,101216.03
2023-01-06T03:34:06.145Z,101195.50
2023-01-06T03:39:16.160Z,101184.59
2023-01-06T03:44:51.340Z,101174.63
2023-01-06T03:50:08.499Z,101154.06
2023-01-06T03:55:13.124Z,101137.59
2023-01-06T04:00:21.661Z,101133.78
2023-01-06T04:05:33.276Z,101112.97
2023-01-06T04:10:39.246Z,101118.28
2023-01-06T04:15:44.855Z,101114.66
2023-01-06T04:20:50.496Z,101102.97
2023-01-06T04:26:01.833Z,101122.97
2023-01-06T04:31:16.620Z,101106.47
2023-01-06T04:36:22.335Z,101114.28
2023-01-06T04:41:30.382Z,101085.13
2023-01-06T04:46:35.214Z,101096.19
2023-01-06T04:51:40.045Z,101082.97
2023-01-06T04:56:45.964Z,101075.69
2023-01-06T05:01:50.396Z,101077.19
2023-01-06T05:06:54.745Z,101072.50
2023-01-06T05:11:58.462Z,101072.00
2023-01-06T05:17:03.387Z,101078.28
2023-01-06T05:22:08.183Z,101056.78
2023-01-06T05:27:13.690Z,101064.50
2023-01-06T05:32:17.923Z,101042.16
2023-01-06T05:37:22.261Z,101043.06
2023-01-06T05:42:26.993Z,101042.03
2023-01-06T05:47:31.659Z,101046.34
2023-01-06T05:52:36.436Z,101048.53
2023-01-06T05:57:41.330Z,101048.84
2023-01-06T06:02:46.353Z,101043.16
2023-01-06T06:08:00.348Z,101067.25
2023-01-06T06:13:05.167Z,101045.81
2023-01-06T06:18:09.517Z,101051.06
2023-01-06T06:23:15.137Z,101060.00
2023-01-06T06:28:20.307Z,101036.28
2023-01-06T06:33:27.958Z,101033.88
2023-01-06T06:38:33.074Z,101029.69
2023-01-06T06:43:38.046Z,101028.88
2023-01-06T06:48:42.934Z,101033.38
2023-01-06T06:53:47.694Z,101046.72
2023-01-06T06:58:53.665Z,101060.28
2023-01-06T07:03:58.874Z,101060.28
2023-01-06T07:09:03.917Z,101073.81
2023-01-06T07:14:08.756Z,101089.53
2023-01-06T07:19:14.561Z,101089.22
2023-01-06T07:24:19.388Z,101106.34
2023-01-06T07:29:24.164Z,101089.63
2023-01-06T07:34:29.053Z,101106.91
2023-01-06T07:39:33.882Z,101106.38
2023-01-06T07:44:38.220Z,101141.00
2023-01-06T07:49:43.126Z,101117.72
2023-01-06T07:54:48.030Z,101133.03
2023-01-06T07:59:52.892Z,101134.19
2023-01-06T08:05:00.319Z,101138.91
2023-01-06T08:10:04.901Z,101128.88
2023-01-06T08:15:08.829Z,101143.31
2023-01-06T08:20:13.784Z,101152.94
2023-01-06T08:25:18.752Z,101147.91
2023-01-06T08:30:23.488Z,101191.25
2023-01-06T08:35:27.907Z,101170.09
2023-01-06T08:40:31.774Z,101173.31
2023-01-06T08:45:40.019Z,101172.34
2023-01-06T08:50:44.477Z,101180.03
2023-01-06T08:55:49.223Z,101187.94
2023-01-06T09:00:54.668Z,101204.13
2023-01-06T09:06:00.641Z,101202.94
2023-01-06T09:11:09.742Z,101221.16
2023-01-06T09:16:13.644Z,101216.59
2023-01-06T09:21:24.019Z,101223.16
2023-01-06T09:26:28.862Z,101229.03
2023-01-06T09:31:33.243Z,101233.78
2023-01-06T09:36:37.931Z,101236.03
2023-01-06T09:42:18.241Z,101241.53
2023-01-06T09:47:35.404Z,101249.84
2023-01-06T09:52:53.594Z,101279.09
2023-01-06T09:58:05.435Z,101266.66
2023-01-06T10:03:19.607Z,101275.28
2023-01-06T10:08:23.694Z,101271.63
2023-01-06T10:14:03.223Z,101293.03
2023-01-06T10:19:08.611Z,101301.44
2023-01-06T10:24:30.982Z,101308.78
2023-01-06T10:29:37.429Z,101334.03
2023-01-06T10:34:49.824Z,101315.78
2023-01-06T10:40:00.211Z,101331.00
2023-01-06T10:45:05.686Z,101328.44
2023-01-06T10:50:14.574Z,101350.53
2023-01-06T10:55:33.611Z,101362.91
2023-01-06T11:00:38.921Z,101378.53
2023-01-06T11:05:44.009Z,101370.22
2023-01-06T11:10:56.010Z,101368.91
2023-01-06T11:16:04.645Z,101387.50
2023-01-06T11:21:13.713Z,101387.03
2023-01-06T11:26:20.395Z,101390.88
2023-01-06T11:31:28.635Z,101391.91
2023-01-06T11:36:35.880Z,101400.44
2023-01-06T11:41:48.534Z,101404.47
2023-01-06T11:47:00.758Z,101416.38
2023-01-06T11:52:22.802Z,101409.88
2023-01-06T11:57:37.437Z,101413.22
2023-01-06T12:02:55.050Z,101413.94
2023-01-06T12:08:02.455Z,101403.22
2023-01-06T12:13:08.268Z,101403.16
2023-01-06T12:18:27.909Z,101404.19
2023-01-06T12:23:39.053Z,101399.09
2023-01-06T12:28:50.622Z,101396.25
2023-01-06T12:34:05.015Z,101382.25
2023-01-06T12:39:21.546Z,101402.34
2023-01-06T12:44:26.387Z,101396.63
2023-01-06T12:49:32.197Z,101395.97
2023-01-06T12:54:42.176Z,101398.09
2023-01-06T13:00:12.023Z,101393.38
2023-01-06T13:05:26.630Z,101406.34
2023-01-06T13:10:56.626Z,101405.13
2023-01-06T13:16:28.545Z,101420.44
2023-01-06T13:21:37.892Z,101411.56
2023-01-06T13:27:13.632Z,101411.13
2023-01-06T13:33:01.313Z,101421.97
2023-01-06T13:38:05.871Z,101415.44
2023-01-06T13:43:35.378Z,101408.91
2023-01-06T13:48:41.491Z,101405.75
2023-01-06T13:53:47.771Z,101408.66
2023-01-06T13:59:14.303Z,101408.75
2023-01-06T14:04:18.328Z,101405.41
2023-01-06T14:09:23.238Z,101403.69
2023-01-06T14:14:30.479Z,101406.06
2023-01-06T14:19:42.062Z,101416.16
2023-01-06T14:24:56.712Z,101461.66
2023-01-06T14:30:07.504Z,101419.16
2023-01-06T14:35:17.553Z,101435.38
2023-01-06T14:40:27.783Z,101412.75
2023-01-06T14:45:40.773Z,101413.06
2023-01-06T14:50:57.854Z,101401.47
2023-01-06T14:56:07.544Z,101389.59
2023-01-06T15:01:31.642Z,101397.63
2023-01-06T15:06:36.778Z,101403.09
2023-01-06T15:11:45.066Z,101399.19
2023-01-06T15:16:50.093Z,101415.03
2023-01-06T15:21:57.008Z,101391.81
2023-01-06T15:27:13.023Z,101411.63
2023-01-06T15:32:20.254Z,101411.00
2023-01-06T15:37:28.818Z,101420.63
2023-01-06T15:42:38.289Z,101407.72
2023-01-06T15:47:52.634Z,101417.44
2023-01-06T15:53:04.867Z,101417.66
2023-01-06T15:58:36.885Z,101406.84
2023-01-06T16:03:42.506Z,101432.09
2023-01-06T16:08:49.772Z,101400.50
2023-01-06T16:13:58.941Z,101407.63
2023-01-06T16:19:19.735Z,101398.41
2023-01-06T16:24:31.619Z,101405.50
2023-01-06T16:29:40.749Z,101391.78
2023-01-06T16:34:56.660Z,101395.09
2023-01-06T16:40:06.103Z,101389.81
2023-01-06T16:45:23.327Z,101380.81
2023-01-06T16:50:37.356Z,101367.72
2023-01-06T16:55:46.485Z,101376.28
2023-01-06T17:00:53.926Z,101390.38
2023-01-06T17:05:59.500Z,101385.72
2023-01-06T17:11:14.586Z,101379.22
2023-01-06T17:16:23.275Z,101366.69
2023-01-06T17:21:36.841Z,101379.00
2023-01-06T17:26:42.935Z,101377.56
2023-01-06T17:31:51.158Z,101383.00
2023-01-06T17:36:58.099Z,101368.69
2023-01-06T17:42:15.166Z,101360.00
2023-01-06T17:47:22.230Z,101370.16
2023-01-06T17:52:43.548Z,101361.19
2023-01-06T17:57:49.829Z,101387.56
2023-01-06T18:03:03.437Z,101373.53
2023-01-06T18:08:07.954Z,101386.44
2023-01-06T18:13:15.871Z,101380.00
2023-01-06T18:18:41.465Z,101380.63
2023-01-06T18:23:52.465Z,101382.81
2023-01-06T18:29:24.602Z,101377.00
2023-01-06T18:34:41.331Z,101393.69
2023-01-06T18:39:52.714Z,101401.56
2023-01-06T18:45:04.622Z,101387.94
2023-01-06T18:50:42.883Z,101394.09
2023-01-06T18:55:53.263Z,101400.94
2023-01-06T19:01:03.148Z,101407.75
2023-01-06T19:06:11.208Z,101400.97
2023-01-06T19:11:20.141Z,101384.59
2023-01-06T19:16:29.009Z,101370.78
2023-01-06T19:21:36.695Z,101371.78
2023-01-06T19:26:43.589Z,101368.47
2023-01-06T19:31:59.690Z,101381.63
2023-01-06T19:37:11.863Z,101387.84
2023-01-06T19:42:31.142Z,101384.56
2023-01-06T19:47:43.253Z,101366.72
2023-01-06T19:52:47.798Z,101362.56
2023-01-06T19:57:54.312Z,101361.00
2023-01-06T20:03:05.371Z,101360.91
2023-01-06T20:08:10.166Z,101375.56
2023-01-06T20:13:15.038Z,101368.78
2023-01-06T20:18:20.341Z,101362.06
2023-01-06T20:23:26.322Z,101350.78
2023-01-06T20:28:31.408Z,101357.66
2023-01-06T20:33:37.169Z,101356.91
2023-01-06T20:38:42.236Z,101351.78
2023-01-06T20:43:47.362Z,101361.34
2023-01-06T20:48:52.510Z,101371.84
2023-01-06T20:53:57.623Z,101372.84
2023-01-06T20:59:02.825Z,101378.16
2023-01-06T21:04:08.179Z,101380.91
2023-01-06T21:09:13.469Z,101390.44
2023-01-06T21:14:18.664Z,101377.63
2023-01-06T21:19:23.889Z,101393.88
2023-01-06T21:24:29.325Z,101367.22
2023-01-06T21:29:34.413Z,101367.25
2023-01-06T21:34:39.721Z,101374.16
2023-01-06T21:39:46.633Z,101378.38
2023-01-06T21:44:52.673Z,101386.16
2023-01-06T21:49:57.538Z,101387.94
2023-01-06T21:55:02.760Z,101398.44
2023-01-06T22:00:12.569Z,101390.06
2023-01-06T22:05:17.173Z,101402.25
2023-01-06T22:10:24.834Z,101396.38
2023-01-06T22:15:30.328Z,101401.66
2023-01-06T22:20:35.358Z,101407.81
2023-01-06T22:25:40.673Z,101412.16
2023-01-06T22:30:45.447Z,101398.44
2023-01-06T22:35:50.101Z,101408.59
2023-01-06T22:40:54.690Z,101429.88
2023-01-06T22:45:59.596Z,101406.75
2023-01-06T22:51:07.064Z,101418.69
2023-01-06T22:56:13.342Z,101429.78
2023-01-06T23:01:19.765Z,101411.03
2023-01-06T23:06:24.479Z,101417.13
2023-01-06T23:11:29.756Z,101425.78
2023-01-06T23:16:36.597Z,101437.94
2023-01-06T23:21:43.217Z,101450.06
2023-01-06T23:26:48.219Z,101449.31
2023-01-06T23:31:52.804Z,101470.72
2023-01-06T23:36:57.636Z,101501.63
2023-01-06T23:42:02.211Z,101493.03
2023-01-06T23:47:08.232Z,101497.28
2023-01-06T23:52:14.520Z,101481.81
2023-01-06T23:57:20.139Z,101516.81
